sensor_id;sensor_type;location;lat;lon;timestamp;P1;durP1;ratioP1;P2;durP2;ratioP2
18021;SDS011;9136;48.822;7.966;2022-10-30T00:01:57;19.93;;;18.93;;
18021;SDS011;9136;48.822;7.966;2022-10-30T00:04:47;16.87;;;15.97;;
18021;SDS011;9136;48.822;7.966;2022-10-30T00:07:39;18.70;;;17.83;;
18021;SDS011;9136;48.822;7.966;2022-10-30T00:10:29;18.37;;;16.97;;
18021;SDS011;9136;48.822;7.966;2022-10-30T00:13:23;18.13;;;17.03;;
18021;SDS011;9136;48.822;7.966;2022-10-30T00:16:13;18.20;;;17.33;;
18021;SDS011;9136;48.822;7.966;2022-10-30T00:19:05;17.90;;;16.90;;
18021;SDS011;9136;48.822;7.966;2022-10-30T00:21:57;19.70;;;18.37;;
18021;SDS011;9136;48.822;7.966;2022-10-30T00:24:48;16.67;;;15.93;;
18021;SDS011;9136;48.822;7.966;2022-10-30T00:27:47;18.03;;;17.23;;
18021;SDS011;9136;48.822;7.966;2022-10-30T00:30:39;18.40;;;17.50;;
18021;SDS011;9136;48.822;7.966;2022-10-30T00:33:29;17.77;;;16.97;;
18021;SDS011;9136;48.822;7.966;2022-10-30T00:36:23;18.07;;;16.63;;
18021;SDS011;9136;48.822;7.966;2022-10-30T00:39:21;17.60;;;16.73;;
18021;SDS011;9136;48.822;7.966;2022-10-30T00:42:13;18.83;;;17.73;;
18021;SDS011;9136;48.822;7.966;2022-10-30T00:45:09;18.53;;;17.63;;
18021;SDS011;9136;48.822;7.966;2022-10-30T00:48:05;18.70;;;17.83;;
18021;SDS011;9136;48.822;7.966;2022-10-30T00:50:59;17.80;;;16.80;;
18021;SDS011;9136;48.822;7.966;2022-10-30T00:53:55;15.90;;;15.10;;
18021;SDS011;9136;48.822;7.966;2022-10-30T00:56:49;18.40;;;17.40;;
18021;SDS011;9136;48.822;7.966;2022-10-30T00:59:49;18.67;;;17.50;;
18021;SDS011;9136;48.822;7.966;2022-10-30T01:02:40;17.10;;;16.30;;
18021;SDS011;9136;48.822;7.966;2022-10-30T01:05:51;16.57;;;15.87;;
18021;SDS011;9136;48.822;7.966;2022-10-30T01:08:51;20.80;;;19.07;;
18021;SDS011;9136;48.822;7.966;2022-10-30T01:11:56;20.13;;;19.03;;
18021;SDS011;9136;48.822;7.966;2022-10-30T01:14:52;17.77;;;16.97;;
18021;SDS011;9136;48.822;7.966;2022-10-30T01:17:56;17.47;;;16.67;;
18021;SDS011;9136;48.822;7.966;2022-10-30T01:24:45;18.60;;;17.63;;
18021;SDS011;9136;48.822;7.966;2022-10-30T01:27:55;17.20;;;16.43;;
18021;SDS011;9136;48.822;7.966;2022-10-30T01:31:15;17.60;;;16.70;;
18021;SDS011;9136;48.822;7.966;2022-10-30T01:34:16;17.43;;;16.20;;
18021;SDS011;9136;48.822;7.966;2022-10-30T01:37:09;17.07;;;16.27;;
18021;SDS011;9136;48.822;7.966;2022-10-30T01:40:14;28.00;;;16.97;;
18021;SDS011;9136;48.822;7.966;2022-10-30T01:43:04;20.43;;;19.33;;
18021;SDS011;9136;48.822;7.966;2022-10-30T01:46:08;17.87;;;16.73;;
18021;SDS011;9136;48.822;7.966;2022-10-30T01:49:19;19.63;;;18.73;;
18021;SDS011;9136;48.822;7.966;2022-10-30T01:52:27;18.70;;;17.80;;
18021;SDS011;9136;48.822;7.966;2022-10-30T01:55:29;17.93;;;17.03;;
18021;SDS011;9136;48.822;7.966;2022-10-30T01:58:38;17.53;;;16.53;;
18021;SDS011;9136;48.822;7.966;2022-10-30T02:01:41;20.83;;;19.73;;
18021;SDS011;9136;48.822;7.966;2022-10-30T02:04:36;18.43;;;17.53;;
18021;SDS011;9136;48.822;7.966;2022-10-30T02:07:33;19.90;;;18.90;;
18021;SDS011;9136;48.822;7.966;2022-10-30T02:10:22;17.23;;;16.43;;
18021;SDS011;9136;48.822;7.966;2022-10-30T02:13:17;19.00;;;18.10;;
18021;SDS011;9136;48.822;7.966;2022-10-30T02:16:09;19.50;;;18.57;;
18021;SDS011;9136;48.822;7.966;2022-10-30T02:18:58;19.73;;;18.73;;
18021;SDS011;9136;48.822;7.966;2022-10-30T02:22:05;18.83;;;17.93;;
18021;SDS011;9136;48.822;7.966;2022-10-30T02:25:05;20.93;;;19.83;;
18021;SDS011;9136;48.822;7.966;2022-10-30T02:27:55;19.80;;;18.23;;
18021;SDS011;9136;48.822;7.966;2022-10-30T02:30:46;18.73;;;17.70;;
18021;SDS011;9136;48.822;7.966;2022-10-30T02:33:39;19.47;;;18.57;;
18021;SDS011;9136;48.822;7.966;2022-10-30T02:36:31;17.63;;;16.77;;
18021;SDS011;9136;48.822;7.966;2022-10-30T02:39:26;18.80;;;17.67;;
18021;SDS011;9136;48.822;7.966;2022-10-30T02:42:16;19.27;;;18.23;;
18021;SDS011;9136;48.822;7.966;2022-10-30T02:45:09;19.17;;;18.27;;
18021;SDS011;9136;48.822;7.966;2022-10-30T02:48:06;17.23;;;16.43;;
18021;SDS011;9136;48.822;7.966;2022-10-30T02:50:58;17.57;;;16.77;;
18021;SDS011;9136;48.822;7.966;2022-10-30T02:54:02;17.23;;;16.43;;
18021;SDS011;9136;48.822;7.966;2022-10-30T02:57:03;19.30;;;18.40;;
18021;SDS011;9136;48.822;7.966;2022-10-30T02:59:57;18.17;;;17.33;;
18021;SDS011;9136;48.822;7.966;2022-10-30T03:02:48;16.73;;;15.93;;
18021;SDS011;9136;48.822;7.966;2022-10-30T03:05:43;19.33;;;18.43;;
18021;SDS011;9136;48.822;7.966;2022-10-30T03:08:41;19.87;;;18.87;;
18021;SDS011;9136;48.822;7.966;2022-10-30T03:11:37;17.33;;;16.53;;
18021;SDS011;9136;48.822;7.966;2022-10-30T03:14:29;19.23;;;18.13;;
18021;SDS011;9136;48.822;7.966;2022-10-30T03:17:33;18.40;;;17.60;;
18021;SDS011;9136;48.822;7.966;2022-10-30T03:20:33;17.97;;;17.17;;
18021;SDS011;9136;48.822;7.966;2022-10-30T03:23:26;18.30;;;17.43;;
18021;SDS011;9136;48.822;7.966;2022-10-30T03:26:29;20.93;;;19.20;;
18021;SDS011;9136;48.822;7.966;2022-10-30T03:29:18;19.80;;;18.90;;
18021;SDS011;9136;48.822;7.966;2022-10-30T03:32:26;21.67;;;20.47;;
18021;SDS011;9136;48.822;7.966;2022-10-30T03:35:14;19.07;;;18.07;;
18021;SDS011;9136;48.822;7.966;2022-10-30T03:38:05;18.40;;;17.17;;
18021;SDS011;9136;48.822;7.966;2022-10-30T03:41:07;18.20;;;17.30;;
18021;SDS011;9136;48.822;7.966;2022-10-30T03:43:59;20.23;;;19.23;;
18021;SDS011;9136;48.822;7.966;2022-10-30T03:46:53;22.97;;;21.80;;
18021;SDS011;9136;48.822;7.966;2022-10-30T03:49:48;20.73;;;19.70;;
18021;SDS011;9136;48.822;7.966;2022-10-30T03:52:55;19.73;;;18.80;;
18021;SDS011;9136;48.822;7.966;2022-10-30T03:55:49;18.93;;;18.03;;
18021;SDS011;9136;48.822;7.966;2022-10-30T03:58:43;18.97;;;18.07;;
18021;SDS011;9136;48.822;7.966;2022-10-30T04:01:36;17.87;;;17.03;;
18021;SDS011;9136;48.822;7.966;2022-10-30T04:04:28;18.17;;;17.23;;
18021;SDS011;9136;48.822;7.966;2022-10-30T04:10:33;18.10;;;17.10;;
18021;SDS011;9136;48.822;7.966;2022-10-30T04:13:35;18.87;;;17.53;;
18021;SDS011;9136;48.822;7.966;2022-10-30T04:16:48;20.87;;;19.47;;
18021;SDS011;9136;48.822;7.966;2022-10-30T04:19:37;18.83;;;17.93;;
18021;SDS011;9136;48.822;7.966;2022-10-30T04:22:27;19.47;;;18.57;;
18021;SDS011;9136;48.822;7.966;2022-10-30T04:25:21;17.07;;;16.27;;
18021;SDS011;9136;48.822;7.966;2022-10-30T04:28:14;20.20;;;19.23;;
18021;SDS011;9136;48.822;7.966;2022-10-30T04:31:07;18.53;;;17.53;;
18021;SDS011;9136;48.822;7.966;2022-10-30T04:34:01;19.93;;;19.03;;
18021;SDS011;9136;48.822;7.966;2022-10-30T04:36:57;19.30;;;18.40;;
18021;SDS011;9136;48.822;7.966;2022-10-30T04:39:58;19.70;;;18.80;;
18021;SDS011;9136;48.822;7.966;2022-10-30T04:43:01;18.33;;;17.47;;
18021;SDS011;9136;48.822;7.966;2022-10-30T04:46:03;20.07;;;19.07;;
18021;SDS011;9136;48.822;7.966;2022-10-30T04:49:02;20.43;;;19.40;;
18021;SDS011;9136;48.822;7.966;2022-10-30T04:51:53;20.93;;;18.97;;
18021;SDS011;9136;48.822;7.966;2022-10-30T04:54:56;17.30;;;16.50;;
18021;SDS011;9136;48.822;7.966;2022-10-30T04:58:11;21.13;;;20.03;;
18021;SDS011;9136;48.822;7.966;2022-10-30T05:01:04;18.13;;;17.13;;
18021;SDS011;9136;48.822;7.966;2022-10-30T05:03:54;18.07;;;17.07;;
18021;SDS011;9136;48.822;7.966;2022-10-30T05:06:44;18.63;;;17.83;;
18021;SDS011;9136;48.822;7.966;2022-10-30T05:09:59;20.63;;;19.47;;
18021;SDS011;9136;48.822;7.966;2022-10-30T05:12:59;20.73;;;19.63;;
18021;SDS011;9136;48.822;7.966;2022-10-30T05:15:50;21.43;;;20.30;;
18021;SDS011;9136;48.822;7.966;2022-10-30T05:18:40;20.63;;;19.53;;
18021;SDS011;9136;48.822;7.966;2022-10-30T05:21:35;20.73;;;19.60;;
18021;SDS011;9136;48.822;7.966;2022-10-30T05:24:23;22.90;;;20.87;;
18021;SDS011;9136;48.822;7.966;2022-10-30T05:27:35;20.30;;;18.90;;
18021;SDS011;9136;48.822;7.966;2022-10-30T05:30:36;20.73;;;19.17;;
18021;SDS011;9136;48.822;7.966;2022-10-30T05:33:43;20.83;;;19.67;;
18021;SDS011;9136;48.822;7.966;2022-10-30T05:36:33;22.07;;;20.97;;
18021;SDS011;9136;48.822;7.966;2022-10-30T05:39:46;19.37;;;18.30;;
18021;SDS011;9136;48.822;7.966;2022-10-30T05:42:57;20.60;;;19.50;;
18021;SDS011;9136;48.822;7.966;2022-10-30T05:46:09;17.40;;;16.50;;
18021;SDS011;9136;48.822;7.966;2022-10-30T05:49:09;19.20;;;18.20;;
18021;SDS011;9136;48.822;7.966;2022-10-30T05:52:09;19.87;;;18.83;;
18021;SDS011;9136;48.822;7.966;2022-10-30T05:55:14;19.67;;;18.77;;
18021;SDS011;9136;48.822;7.966;2022-10-30T05:58:23;18.10;;;17.30;;
18021;SDS011;9136;48.822;7.966;2022-10-30T06:01:33;20.50;;;19.53;;
18021;SDS011;9136;48.822;7.966;2022-10-30T06:04:38;19.27;;;18.27;;
18021;SDS011;9136;48.822;7.966;2022-10-30T06:07:57;20.73;;;19.33;;
18021;SDS011;9136;48.822;7.966;2022-10-30T06:10:45;20.57;;;19.37;;
18021;SDS011;9136;48.822;7.966;2022-10-30T06:13:51;20.20;;;19.13;;
18021;SDS011;9136;48.822;7.966;2022-10-30T06:20:04;20.73;;;19.50;;
18021;SDS011;9136;48.822;7.966;2022-10-30T06:23:43;19.53;;;18.60;;
18021;SDS011;9136;48.822;7.966;2022-10-30T06:26:27;22.10;;;21.00;;
18021;SDS011;9136;48.822;7.966;2022-10-30T06:29:35;22.23;;;20.93;;
18021;SDS011;9136;48.822;7.966;2022-10-30T06:32:52;25.13;;;23.47;;
18021;SDS011;9136;48.822;7.966;2022-10-30T06:35:54;18.63;;;17.63;;
18021;SDS011;9136;48.822;7.966;2022-10-30T06:38:56;20.47;;;19.40;;
18021;SDS011;9136;48.822;7.966;2022-10-30T06:41:54;20.43;;;19.27;;
18021;SDS011;9136;48.822;7.966;2022-10-30T06:44:53;18.57;;;17.57;;
18021;SDS011;9136;48.822;7.966;2022-10-30T06:47:45;18.00;;;17.00;;
18021;SDS011;9136;48.822;7.966;2022-10-30T07:05:31;18.80;;;17.80;;
18021;SDS011;9136;48.822;7.966;2022-10-30T07:08:20;19.83;;;18.83;;
18021;SDS011;9136;48.822;7.966;2022-10-30T07:18:51;17.47;;;16.57;;
18021;SDS011;9136;48.822;7.966;2022-10-30T07:22:42;20.03;;;18.97;;
18021;SDS011;9136;48.822;7.966;2022-10-30T07:26:25;19.17;;;17.33;;
18021;SDS011;9136;48.822;7.966;2022-10-30T07:29:29;18.83;;;17.83;;
18021;SDS011;9136;48.822;7.966;2022-10-30T07:33:03;19.57;;;18.60;;
18021;SDS011;9136;48.822;7.966;2022-10-30T07:40:15;21.20;;;19.67;;
18021;SDS011;9136;48.822;7.966;2022-10-30T07:46:41;18.10;;;17.20;;
18021;SDS011;9136;48.822;7.966;2022-10-30T07:49:39;18.13;;;17.13;;
18021;SDS011;9136;48.822;7.966;2022-10-30T07:53:10;18.33;;;17.20;;
18021;SDS011;9136;48.822;7.966;2022-10-30T07:59:52;19.00;;;17.57;;
18021;SDS011;9136;48.822;7.966;2022-10-30T08:03:28;19.70;;;18.63;;
18021;SDS011;9136;48.822;7.966;2022-10-30T08:06:38;16.47;;;15.63;;
18021;SDS011;9136;48.822;7.966;2022-10-30T08:09:42;18.03;;;17.13;;
18021;SDS011;9136;48.822;7.966;2022-10-30T08:17:00;18.27;;;17.37;;
18021;SDS011;9136;48.822;7.966;2022-10-30T08:19:47;17.63;;;16.77;;
18021;SDS011;9136;48.822;7.966;2022-10-30T08:24:25;18.50;;;17.50;;
18021;SDS011;9136;48.822;7.966;2022-10-30T08:37:18;18.10;;;17.13;;
18021;SDS011;9136;48.822;7.966;2022-10-30T08:40:51;17.40;;;16.50;;
18021;SDS011;9136;48.822;7.966;2022-10-30T08:44:39;18.07;;;17.17;;
18021;SDS011;9136;48.822;7.966;2022-10-30T08:47:54;18.57;;;17.67;;
18021;SDS011;9136;48.822;7.966;2022-10-30T08:51:24;18.20;;;17.10;;
18021;SDS011;9136;48.822;7.966;2022-10-30T08:58:43;17.77;;;16.87;;
18021;SDS011;9136;48.822;7.966;2022-10-30T09:02:22;16.77;;;15.97;;
18021;SDS011;9136;48.822;7.966;2022-10-30T09:05:33;17.07;;;16.17;;
18021;SDS011;9136;48.822;7.966;2022-10-30T09:15:57;17.40;;;16.50;;
18021;SDS011;9136;48.822;7.966;2022-10-30T09:19:48;17.83;;;16.67;;
18021;SDS011;9136;48.822;7.966;2022-10-30T09:22:48;17.20;;;16.30;;
18021;SDS011;9136;48.822;7.966;2022-10-30T09:26:24;17.20;;;16.30;;
18021;SDS011;9136;48.822;7.966;2022-10-30T09:29:14;17.87;;;16.87;;
18021;SDS011;9136;48.822;7.966;2022-10-30T09:32:20;16.70;;;15.47;;
18021;SDS011;9136;48.822;7.966;2022-10-30T09:35:29;17.47;;;16.17;;
18021;SDS011;9136;48.822;7.966;2022-10-30T09:38:51;18.13;;;17.23;;
18021;SDS011;9136;48.822;7.966;2022-10-30T09:53:55;17.10;;;16.20;;
18021;SDS011;9136;48.822;7.966;2022-10-30T09:58:03;16.37;;;15.57;;
18021;SDS011;9136;48.822;7.966;2022-10-30T10:08:22;17.17;;;16.27;;
18021;SDS011;9136;48.822;7.966;2022-10-30T10:15:47;16.80;;;16.00;;
18021;SDS011;9136;48.822;7.966;2022-10-30T10:19:27;22.05;;;16.80;;
18021;SDS011;9136;48.822;7.966;2022-10-30T10:26:25;15.35;;;14.55;;
18021;SDS011;9136;48.822;7.966;2022-10-30T10:30:03;16.38;;;15.57;;
18021;SDS011;9136;48.822;7.966;2022-10-30T10:37:24;15.48;;;14.63;;
18021;SDS011;9136;48.822;7.966;2022-10-30T10:40:39;16.92;;;16.05;;
18021;SDS011;9136;48.822;7.966;2022-10-30T11:02:13;16.00;;;15.10;;
18021;SDS011;9136;48.822;7.966;2022-10-30T11:06:17;14.88;;;13.38;;
18021;SDS011;9136;48.822;7.966;2022-10-30T11:19:01;13.15;;;12.25;;
18021;SDS011;9136;48.822;7.966;2022-10-30T11:24:25;11.98;;;11.32;;
18021;SDS011;9136;48.822;7.966;2022-10-30T11:28:03;13.10;;;12.35;;
18021;SDS011;9136;48.822;7.966;2022-10-30T11:35:01;12.20;;;11.40;;
18021;SDS011;9136;48.822;7.966;2022-10-30T11:42:21;12.85;;;12.05;;
18021;SDS011;9136;48.822;7.966;2022-10-30T11:50:25;13.05;;;11.88;;
18021;SDS011;9136;48.822;7.966;2022-10-30T11:55:09;14.25;;;13.15;;
18021;SDS011;9136;48.822;7.966;2022-10-30T12:01:40;11.77;;;11.27;;
18021;SDS011;9136;48.822;7.966;2022-10-30T12:12:01;12.82;;;12.13;;
18021;SDS011;9136;48.822;7.966;2022-10-30T12:15:31;12.70;;;11.70;;
18021;SDS011;9136;48.822;7.966;2022-10-30T12:20:13;12.30;;;11.70;;
18021;SDS011;9136;48.822;7.966;2022-10-30T12:22:02;12.20;;;11.60;;
18021;SDS011;9136;48.822;7.966;2022-10-30T12:25:23;13.35;;;12.23;;
18021;SDS011;9136;48.822;7.966;2022-10-30T12:31:16;12.13;;;11.50;;
18021;SDS011;9136;48.822;7.966;2022-10-30T12:34:32;11.95;;;10.95;;
18021;SDS011;9136;48.822;7.966;2022-10-30T12:37:41;12.23;;;11.63;;
18021;SDS011;9136;48.822;7.966;2022-10-30T12:40:53;12.80;;;12.18;;
18021;SDS011;9136;48.822;7.966;2022-10-30T12:43:48;12.68;;;12.07;;
18021;SDS011;9136;48.822;7.966;2022-10-30T12:47:10;11.50;;;10.95;;
18021;SDS011;9136;48.822;7.966;2022-10-30T12:50:17;13.43;;;12.73;;
18021;SDS011;9136;48.822;7.966;2022-10-30T12:54:01;13.13;;;12.35;;
18021;SDS011;9136;48.822;7.966;2022-10-30T12:56:49;12.90;;;12.20;;
18021;SDS011;9136;48.822;7.966;2022-10-30T12:59:57;15.25;;;12.70;;
18021;SDS011;9136;48.822;7.966;2022-10-30T13:02:59;11.43;;;10.93;;
18021;SDS011;9136;48.822;7.966;2022-10-30T13:06:18;12.00;;;11.32;;
18021;SDS011;9136;48.822;7.966;2022-10-30T13:09:23;12.70;;;11.85;;
18021;SDS011;9136;48.822;7.966;2022-10-30T13:12:48;12.15;;;11.55;;
18021;SDS011;9136;48.822;7.966;2022-10-30T13:16:11;12.05;;;11.27;;
18021;SDS011;9136;48.822;7.966;2022-10-30T13:19:16;12.15;;;11.40;;
18021;SDS011;9136;48.822;7.966;2022-10-30T13:22:25;11.60;;;11.00;;
18021;SDS011;9136;48.822;7.966;2022-10-30T13:25:51;11.93;;;11.32;;
18021;SDS011;9136;48.822;7.966;2022-10-30T13:28:59;13.85;;;12.48;;
18021;SDS011;9136;48.822;7.966;2022-10-30T13:31:58;12.38;;;11.77;;
18021;SDS011;9136;48.822;7.966;2022-10-30T13:35:27;13.45;;;12.50;;
18021;SDS011;9136;48.822;7.966;2022-10-30T13:38:36;12.20;;;11.35;;
18021;SDS011;9136;48.822;7.966;2022-10-30T13:41:38;12.30;;;11.70;;
18021;SDS011;9136;48.822;7.966;2022-10-30T13:45:10;12.93;;;12.32;;
18021;SDS011;9136;48.822;7.966;2022-10-30T13:48:47;12.15;;;11.55;;
18021;SDS011;9136;48.822;7.966;2022-10-30T13:55:12;13.15;;;12.45;;
18021;SDS011;9136;48.822;7.966;2022-10-30T13:58:13;13.70;;;12.85;;
18021;SDS011;9136;48.822;7.966;2022-10-30T14:01:29;13.15;;;12.48;;
18021;SDS011;9136;48.822;7.966;2022-10-30T14:04:35;12.23;;;11.48;;
18021;SDS011;9136;48.822;7.966;2022-10-30T14:07:37;13.57;;;12.88;;
18021;SDS011;9136;48.822;7.966;2022-10-30T14:10:45;12.35;;;11.75;;
18021;SDS011;9136;48.822;7.966;2022-10-30T14:14:03;12.48;;;11.77;;
18021;SDS011;9136;48.822;7.966;2022-10-30T14:22:39;12.07;;;11.57;;
18021;SDS011;9136;48.822;7.966;2022-10-30T14:24:45;12.82;;;12.13;;
18021;SDS011;9136;48.822;7.966;2022-10-30T14:27:36;12.80;;;12.20;;
18021;SDS011;9136;48.822;7.966;2022-10-30T14:30:40;11.30;;;10.70;;
18021;SDS011;9136;48.822;7.966;2022-10-30T14:33:50;13.35;;;12.65;;
18021;SDS011;9136;48.822;7.966;2022-10-30T14:37:01;13.07;;;12.27;;
18021;SDS011;9136;48.822;7.966;2022-10-30T14:44:01;12.90;;;12.30;;
18021;SDS011;9136;48.822;7.966;2022-10-30T14:47:28;12.38;;;11.38;;
18021;SDS011;9136;48.822;7.966;2022-10-30T14:50:56;12.85;;;12.25;;
18021;SDS011;9136;48.822;7.966;2022-10-30T14:54:04;13.27;;;12.68;;
18021;SDS011;9136;48.822;7.966;2022-10-30T14:57:42;13.38;;;12.77;;
18021;SDS011;9136;48.822;7.966;2022-10-30T15:00:40;13.60;;;12.90;;
18021;SDS011;9136;48.822;7.966;2022-10-30T15:03:38;14.18;;;13.57;;
18021;SDS011;9136;48.822;7.966;2022-10-30T15:06:54;14.75;;;14.05;;
18021;SDS011;9136;48.822;7.966;2022-10-30T15:09:59;14.02;;;13.05;;
18021;SDS011;9136;48.822;7.966;2022-10-30T15:13:28;13.80;;;13.20;;
18021;SDS011;9136;48.822;7.966;2022-10-30T15:16:31;14.02;;;13.43;;
18021;SDS011;9136;48.822;7.966;2022-10-30T15:19:30;14.10;;;13.40;;
18021;SDS011;9136;48.822;7.966;2022-10-30T15:22:41;14.55;;;13.85;;
18021;SDS011;9136;48.822;7.966;2022-10-30T15:25:43;14.38;;;13.68;;
18021;SDS011;9136;48.822;7.966;2022-10-30T15:28:56;16.52;;;15.30;;
18021;SDS011;9136;48.822;7.966;2022-10-30T15:32:02;15.02;;;14.32;;
18021;SDS011;9136;48.822;7.966;2022-10-30T15:35:25;16.02;;;14.82;;
18021;SDS011;9136;48.822;7.966;2022-10-30T15:38:27;16.30;;;15.40;;
18021;SDS011;9136;48.822;7.966;2022-10-30T15:41:19;16.10;;;15.23;;
18021;SDS011;9136;48.822;7.966;2022-10-30T15:44:12;14.90;;;14.20;;
18021;SDS011;9136;48.822;7.966;2022-10-30T15:47:17;14.48;;;13.75;;
18021;SDS011;9136;48.822;7.966;2022-10-30T15:50:13;13.52;;;12.93;;
18021;SDS011;9136;48.822;7.966;2022-10-30T15:53:16;15.85;;;14.85;;
18021;SDS011;9136;48.822;7.966;2022-10-30T15:56:13;15.73;;;14.95;;
18021;SDS011;9136;48.822;7.966;2022-10-30T15:59:14;14.65;;;13.75;;
18021;SDS011;9136;48.822;7.966;2022-10-30T16:02:15;15.80;;;15.10;;
18021;SDS011;9136;48.822;7.966;2022-10-30T16:05:54;15.95;;;15.15;;
18021;SDS011;9136;48.822;7.966;2022-10-30T16:09:11;17.00;;;16.20;;
18021;SDS011;9136;48.822;7.966;2022-10-30T16:12:19;15.68;;;14.82;;
18021;SDS011;9136;48.822;7.966;2022-10-30T16:18:52;15.90;;;15.13;;
18021;SDS011;9136;48.822;7.966;2022-10-30T16:22:08;15.02;;;13.93;;
18021;SDS011;9136;48.822;7.966;2022-10-30T16:25:23;16.15;;;15.07;;
18021;SDS011;9136;48.822;7.966;2022-10-30T16:28:29;15.23;;;14.52;;
18021;SDS011;9136;48.822;7.966;2022-10-30T16:31:47;17.10;;;16.25;;
18021;SDS011;9136;48.822;7.966;2022-10-30T16:34:38;16.95;;;15.57;;
18021;SDS011;9136;48.822;7.966;2022-10-30T16:37:35;16.95;;;15.52;;
18021;SDS011;9136;48.822;7.966;2022-10-30T16:40:30;16.20;;;15.50;;
18021;SDS011;9136;48.822;7.966;2022-10-30T16:43:37;15.60;;;14.80;;
18021;SDS011;9136;48.822;7.966;2022-10-30T16:46:57;16.17;;;15.33;;
18021;SDS011;9136;48.822;7.966;2022-10-30T16:53:22;14.63;;;13.93;;
18021;SDS011;9136;48.822;7.966;2022-10-30T16:56:27;17.03;;;16.23;;
18021;SDS011;9136;48.822;7.966;2022-10-30T16:59:34;15.13;;;14.13;;
18021;SDS011;9136;48.822;7.966;2022-10-30T17:02:34;14.57;;;13.87;;
18021;SDS011;9136;48.822;7.966;2022-10-30T17:05:26;17.93;;;17.03;;
18021;SDS011;9136;48.822;7.966;2022-10-30T17:08:28;17.03;;;16.13;;
18021;SDS011;9136;48.822;7.966;2022-10-30T17:11:37;16.17;;;15.40;;
18021;SDS011;9136;48.822;7.966;2022-10-30T17:15:02;16.50;;;15.70;;
18021;SDS011;9136;48.822;7.966;2022-10-30T17:21:35;16.03;;;15.27;;
18021;SDS011;9136;48.822;7.966;2022-10-30T17:24:42;16.43;;;15.30;;
18021;SDS011;9136;48.822;7.966;2022-10-30T17:27:52;16.83;;;15.93;;
18021;SDS011;9136;48.822;7.966;2022-10-30T17:31:27;15.67;;;14.87;;
18021;SDS011;9136;48.822;7.966;2022-10-30T17:34:39;15.87;;;15.10;;
18021;SDS011;9136;48.822;7.966;2022-10-30T17:43:06;16.03;;;15.17;;
18021;SDS011;9136;48.822;7.966;2022-10-30T17:46:34;20.60;;;17.50;;
18021;SDS011;9136;48.822;7.966;2022-10-30T17:49:31;17.03;;;16.23;;
18021;SDS011;9136;48.822;7.966;2022-10-30T18:03:44;16.97;;;16.07;;
18021;SDS011;9136;48.822;7.966;2022-10-30T18:11:11;15.37;;;14.67;;
18021;SDS011;9136;48.822;7.966;2022-10-30T18:14:27;17.27;;;16.37;;
18021;SDS011;9136;48.822;7.966;2022-10-30T18:23:02;16.87;;;15.23;;
18021;SDS011;9136;48.822;7.966;2022-10-30T18:26:10;18.33;;;17.23;;
18021;SDS011;9136;48.822;7.966;2022-10-30T18:29:11;19.77;;;18.77;;
18021;SDS011;9136;48.822;7.966;2022-10-30T18:35:37;19.30;;;18.27;;
18021;SDS011;9136;48.822;7.966;2022-10-30T18:38:45;18.43;;;17.53;;
18021;SDS011;9136;48.822;7.966;2022-10-30T18:42:38;17.90;;;17.00;;
18021;SDS011;9136;48.822;7.966;2022-10-30T18:45:28;18.93;;;17.93;;
18021;SDS011;9136;48.822;7.966;2022-10-30T18:48:30;18.03;;;17.13;;
18021;SDS011;9136;48.822;7.966;2022-10-30T18:52:24;17.10;;;16.20;;
18021;SDS011;9136;48.822;7.966;2022-10-30T18:55:32;18.43;;;17.07;;
18021;SDS011;9136;48.822;7.966;2022-10-30T18:58:49;18.00;;;17.00;;
18021;SDS011;9136;48.822;7.966;2022-10-30T19:02:13;17.00;;;16.20;;
18021;SDS011;9136;48.822;7.966;2022-10-30T19:10:06;17.23;;;16.40;;
18021;SDS011;9136;48.822;7.966;2022-10-30T19:12:54;18.27;;;17.37;;
18021;SDS011;9136;48.822;7.966;2022-10-30T19:19:50;18.13;;;17.33;;
18021;SDS011;9136;48.822;7.966;2022-10-30T19:22:53;18.37;;;17.47;;
18021;SDS011;9136;48.822;7.966;2022-10-30T19:26:24;18.97;;;18.03;;
18021;SDS011;9136;48.822;7.966;2022-10-30T19:40:28;17.50;;;16.50;;
18021;SDS011;9136;48.822;7.966;2022-10-30T19:44:01;17.37;;;16.57;;
18021;SDS011;9136;48.822;7.966;2022-10-30T19:50:51;17.57;;;16.77;;
18021;SDS011;9136;48.822;7.966;2022-10-30T19:54:06;19.13;;;17.20;;
18021;SDS011;9136;48.822;7.966;2022-10-30T19:57:29;18.03;;;17.00;;
18021;SDS011;9136;48.822;7.966;2022-10-30T20:00:30;18.83;;;17.53;;
18021;SDS011;9136;48.822;7.966;2022-10-30T20:03:58;17.47;;;16.60;;
18021;SDS011;9136;48.822;7.966;2022-10-30T20:07:38;17.67;;;16.77;;
18021;SDS011;9136;48.822;7.966;2022-10-30T20:11:15;19.57;;;18.47;;
18021;SDS011;9136;48.822;7.966;2022-10-30T20:14:46;17.50;;;16.70;;
18021;SDS011;9136;48.822;7.966;2022-10-30T20:17:49;17.40;;;16.60;;
18021;SDS011;9136;48.822;7.966;2022-10-30T20:20:44;18.07;;;17.20;;
18021;SDS011;9136;48.822;7.966;2022-10-30T20:23:53;18.73;;;17.77;;
18021;SDS011;9136;48.822;7.966;2022-10-30T20:27:28;19.77;;;18.87;;
18021;SDS011;9136;48.822;7.966;2022-10-30T20:34:25;19.37;;;18.33;;
18021;SDS011;9136;48.822;7.966;2022-10-30T20:37:20;18.00;;;17.07;;
18021;SDS011;9136;48.822;7.966;2022-10-30T20:40:40;17.27;;;16.20;;
18021;SDS011;9136;48.822;7.966;2022-10-30T20:43:51;16.87;;;16.07;;
18021;SDS011;9136;48.822;7.966;2022-10-30T20:46:56;18.10;;;17.30;;
18021;SDS011;9136;48.822;7.966;2022-10-30T20:49:58;17.97;;;17.07;;
18021;SDS011;9136;48.822;7.966;2022-10-30T20:53:18;18.47;;;17.63;;
18021;SDS011;9136;48.822;7.966;2022-10-30T20:56:38;18.10;;;17.30;;
18021;SDS011;9136;48.822;7.966;2022-10-30T21:03:14;18.23;;;17.43;;
18021;SDS011;9136;48.822;7.966;2022-10-30T21:06:32;17.27;;;16.47;;
18021;SDS011;9136;48.822;7.966;2022-10-30T21:09:38;17.57;;;16.77;;
18021;SDS011;9136;48.822;7.966;2022-10-30T21:13:14;19.30;;;18.40;;
18021;SDS011;9136;48.822;7.966;2022-10-30T21:17:49;18.83;;;17.83;;
18021;SDS011;9136;48.822;7.966;2022-10-30T21:19:45;18.60;;;17.60;;
18021;SDS011;9136;48.822;7.966;2022-10-30T21:22:44;17.50;;;16.70;;
18021;SDS011;9136;48.822;7.966;2022-10-30T21:25:59;20.10;;;19.00;;
18021;SDS011;9136;48.822;7.966;2022-10-30T21:29:03;19.53;;;18.53;;
18021;SDS011;9136;48.822;7.966;2022-10-30T21:35:13;19.63;;;18.57;;
18021;SDS011;9136;48.822;7.966;2022-10-30T21:38:13;20.73;;;19.73;;
18021;SDS011;9136;48.822;7.966;2022-10-30T21:41:22;18.37;;;17.47;;
18021;SDS011;9136;48.822;7.966;2022-10-30T21:44:16;19.57;;;18.57;;
18021;SDS011;9136;48.822;7.966;2022-10-30T21:47:35;19.10;;;17.90;;
18021;SDS011;9136;48.822;7.966;2022-10-30T21:57:41;20.23;;;19.07;;
18021;SDS011;9136;48.822;7.966;2022-10-30T22:00:59;20.63;;;19.63;;
18021;SDS011;9136;48.822;7.966;2022-10-30T22:04:09;18.00;;;17.10;;
18021;SDS011;9136;48.822;7.966;2022-10-30T22:07:14;18.73;;;17.77;;
18021;SDS011;9136;48.822;7.966;2022-10-30T22:10:30;19.17;;;18.27;;
18021;SDS011;9136;48.822;7.966;2022-10-30T22:13:56;16.80;;;16.00;;
18021;SDS011;9136;48.822;7.966;2022-10-30T22:16:56;18.07;;;17.17;;
18021;SDS011;9136;48.822;7.966;2022-10-30T22:20:00;22.93;;;21.17;;
18021;SDS011;9136;48.822;7.966;2022-10-30T22:22:57;19.30;;;17.83;;
18021;SDS011;9136;48.822;7.966;2022-10-30T22:25:54;20.83;;;19.87;;
18021;SDS011;9136;48.822;7.966;2022-10-30T22:29:06;19.33;;;18.33;;
18021;SDS011;9136;48.822;7.966;2022-10-30T22:32:10;18.37;;;17.47;;
18021;SDS011;9136;48.822;7.966;2022-10-30T22:35:12;21.53;;;19.70;;
18021;SDS011;9136;48.822;7.966;2022-10-30T22:38:33;20.13;;;19.13;;
18021;SDS011;9136;48.822;7.966;2022-10-30T22:41:28;19.70;;;18.70;;